SBGR/GRU METAR and TAF weather

Enter ICAO airport designator
Station Type Date Time Source
SBGR METAR 2021/08/05 05:00 UTC NOAA

SBGR 050500Z 09004KT 9999 BKN023 12/11 Q1029


Station Type Date Time Source
SBGR Decoded METAR 2021/08/05 05:00 UTC NOAA

Guarulhos Civ / Mil , Brazil (SBGR) 23-26S 046-28W
Aug 05, 2021 - 01:00 AM EDT / 2021.08.05 0500 UTC
Wind: from the E (090 degrees) at 5 MPH (4 KT):0
Visibility: greater than 7 mile(s):0
Sky conditions: mostly cloudy
Temperature: 53 F (12 C)
Dew Point: 51 F (11 C)
Relative Humidity: 93%
Pressure (altimeter): 30.39 in. Hg (1029 hPa)
ob: SBGR 050500Z 09004KT 9999 BKN023 12/11 Q1029
cycle: 5

Station Type Date Time Source
SBGR TAF 2021/08/05 06:42 UTC NOAA

TAF TAF SBGR 050400Z 0506/0612 09005KT 8000 BKN013 TN09/0509Z TX21/0518Z
BECMG 0507/0509 BKN009
BECMG 0511/0513 CAVOK
BECMG 0515/0517 14007KT SCT030
BECMG 0520/0522 BKN009
BECMG 0602/0604 09004KT FEW010
BECMG 0606/0608 07004KT BKN008
RMK PHG

Example: see airport list